sensor_id;sensor_type;location;lat;lon;timestamp;P1;durP1;ratioP1;P2;durP2;ratioP2
44189;SDS011;29856;52.144;5.430;2023-05-10T00:01:24;25.60;;;18.90;;
44189;SDS011;29856;52.144;5.430;2023-05-10T00:03:50;20.50;;;14.27;;
44189;SDS011;29856;52.144;5.430;2023-05-10T00:06:15;21.35;;;16.20;;
44189;SDS011;29856;52.144;5.430;2023-05-10T00:08:41;16.88;;;14.27;;
44189;SDS011;29856;52.144;5.430;2023-05-10T00:11:06;31.85;;;21.55;;
44189;SDS011;29856;52.144;5.430;2023-05-10T00:13:32;28.35;;;21.88;;
44189;SDS011;29856;52.144;5.430;2023-05-10T00:15:57;21.67;;;17.52;;
44189;SDS011;29856;52.144;5.430;2023-05-10T00:18:23;24.48;;;19.42;;
44189;SDS011;29856;52.144;5.430;2023-05-10T00:20:49;25.58;;;20.95;;
44189;SDS011;29856;52.144;5.430;2023-05-10T00:23:14;28.83;;;22.23;;
44189;SDS011;29856;52.144;5.430;2023-05-10T00:25:40;34.15;;;23.52;;
44189;SDS011;29856;52.144;5.430;2023-05-10T00:28:05;28.67;;;22.13;;
44189;SDS011;29856;52.144;5.430;2023-05-10T00:30:31;35.00;;;25.15;;
44189;SDS011;29856;52.144;5.430;2023-05-10T00:32:56;22.20;;;16.90;;
44189;SDS011;29856;52.144;5.430;2023-05-10T00:35:22;34.63;;;25.48;;
44189;SDS011;29856;52.144;5.430;2023-05-10T00:37:47;46.28;;;30.38;;
44189;SDS011;29856;52.144;5.430;2023-05-10T00:40:13;38.22;;;24.17;;
44189;SDS011;29856;52.144;5.430;2023-05-10T00:42:38;45.03;;;30.40;;
44189;SDS011;29856;52.144;5.430;2023-05-10T00:45:04;40.38;;;26.90;;
44189;SDS011;29856;52.144;5.430;2023-05-10T00:47:30;39.97;;;28.63;;
44189;SDS011;29856;52.144;5.430;2023-05-10T00:49:57;48.38;;;30.17;;
44189;SDS011;29856;52.144;5.430;2023-05-10T00:52:22;45.15;;;31.48;;
44189;SDS011;29856;52.144;5.430;2023-05-10T00:54:48;49.78;;;32.80;;
44189;SDS011;29856;52.144;5.430;2023-05-10T00:57:15;47.97;;;31.95;;
44189;SDS011;29856;52.144;5.430;2023-05-10T00:59:40;58.83;;;35.95;;
44189;SDS011;29856;52.144;5.430;2023-05-10T01:02:06;53.88;;;35.45;;
44189;SDS011;29856;52.144;5.430;2023-05-10T01:04:31;42.50;;;29.77;;
44189;SDS011;29856;52.144;5.430;2023-05-10T01:06:58;52.15;;;32.65;;
44189;SDS011;29856;52.144;5.430;2023-05-10T01:09:23;51.45;;;33.50;;
44189;SDS011;29856;52.144;5.430;2023-05-10T01:11:49;53.22;;;33.72;;
44189;SDS011;29856;52.144;5.430;2023-05-10T01:14:15;53.22;;;33.97;;
44189;SDS011;29856;52.144;5.430;2023-05-10T01:16:43;60.45;;;36.58;;
44189;SDS011;29856;52.144;5.430;2023-05-10T01:21:57;69.30;;;39.53;;
44189;SDS011;29856;52.144;5.430;2023-05-10T01:38:53;78.18;;;39.53;;
44189;SDS011;29856;52.144;5.430;2023-05-10T01:44:46;60.08;;;36.42;;
44189;SDS011;29856;52.144;5.430;2023-05-10T01:47:32;60.40;;;37.08;;
44189;SDS011;29856;52.144;5.430;2023-05-10T01:50:04;60.42;;;36.25;;
44189;SDS011;29856;52.144;5.430;2023-05-10T01:52:38;66.60;;;36.83;;
44189;SDS011;29856;52.144;5.430;2023-05-10T01:55:11;59.08;;;35.08;;
44189;SDS011;29856;52.144;5.430;2023-05-10T01:57:40;62.88;;;36.83;;
44189;SDS011;29856;52.144;5.430;2023-05-10T02:00:09;57.67;;;33.88;;
44189;SDS011;29856;52.144;5.430;2023-05-10T02:02:36;71.43;;;39.58;;
44189;SDS011;29856;52.144;5.430;2023-05-10T02:05:05;63.80;;;36.40;;
44189;SDS011;29856;52.144;5.430;2023-05-10T02:07:33;61.70;;;35.80;;
44189;SDS011;29856;52.144;5.430;2023-05-10T02:10:01;64.35;;;36.50;;
44189;SDS011;29856;52.144;5.430;2023-05-10T02:12:29;64.20;;;36.08;;
44189;SDS011;29856;52.144;5.430;2023-05-10T02:14:56;67.13;;;37.00;;
44189;SDS011;29856;52.144;5.430;2023-05-10T02:17:24;54.47;;;32.60;;
44189;SDS011;29856;52.144;5.430;2023-05-10T02:19:50;60.55;;;35.78;;
44189;SDS011;29856;52.144;5.430;2023-05-10T02:22:18;57.22;;;33.92;;
44189;SDS011;29856;52.144;5.430;2023-05-10T02:24:44;59.17;;;35.67;;
44189;SDS011;29856;52.144;5.430;2023-05-10T02:27:11;52.47;;;31.75;;
44189;SDS011;29856;52.144;5.430;2023-05-10T02:29:39;68.03;;;37.90;;
44189;SDS011;29856;52.144;5.430;2023-05-10T02:32:04;64.05;;;38.33;;
44189;SDS011;29856;52.144;5.430;2023-05-10T02:34:31;65.55;;;36.88;;
44189;SDS011;29856;52.144;5.430;2023-05-10T02:36:57;84.20;;;40.97;;
44189;SDS011;29856;52.144;5.430;2023-05-10T02:39:24;73.85;;;39.10;;
44189;SDS011;29856;52.144;5.430;2023-05-10T02:41:52;64.13;;;36.55;;
44189;SDS011;29856;52.144;5.430;2023-05-10T02:44:19;65.20;;;37.90;;
44189;SDS011;29856;52.144;5.430;2023-05-10T02:46:45;76.85;;;41.50;;
44189;SDS011;29856;52.144;5.430;2023-05-10T02:49:11;78.38;;;41.75;;
44189;SDS011;29856;52.144;5.430;2023-05-10T02:51:37;77.18;;;41.30;;
44189;SDS011;29856;52.144;5.430;2023-05-10T02:54:09;81.10;;;42.20;;
44189;SDS011;29856;52.144;5.430;2023-05-10T02:56:39;74.57;;;41.13;;
44189;SDS011;29856;52.144;5.430;2023-05-10T02:59:09;76.60;;;42.58;;
44189;SDS011;29856;52.144;5.430;2023-05-10T03:01:34;82.45;;;43.65;;
44189;SDS011;29856;52.144;5.430;2023-05-10T03:04:00;79.68;;;42.85;;
44189;SDS011;29856;52.144;5.430;2023-05-10T03:06:25;87.30;;;46.10;;
44189;SDS011;29856;52.144;5.430;2023-05-10T03:08:51;82.70;;;42.58;;
44189;SDS011;29856;52.144;5.430;2023-05-10T03:11:22;86.65;;;43.88;;
44189;SDS011;29856;52.144;5.430;2023-05-10T03:16:44;104.95;;;48.92;;
44189;SDS011;29856;52.144;5.430;2023-05-10T03:19:16;115.18;;;50.60;;
44189;SDS011;29856;52.144;5.430;2023-05-10T03:21:48;99.07;;;46.55;;
44189;SDS011;29856;52.144;5.430;2023-05-10T03:24:15;111.22;;;49.15;;
44189;SDS011;29856;52.144;5.430;2023-05-10T03:26:44;91.60;;;43.10;;
44189;SDS011;29856;52.144;5.430;2023-05-10T03:29:11;101.93;;;44.88;;
44189;SDS011;29856;52.144;5.430;2023-05-10T03:31:38;89.95;;;43.17;;
44189;SDS011;29856;52.144;5.430;2023-05-10T03:34:04;111.25;;;48.40;;
44189;SDS011;29856;52.144;5.430;2023-05-10T03:36:29;113.47;;;49.40;;
44189;SDS011;29856;52.144;5.430;2023-05-10T03:38:55;126.65;;;50.05;;
44189;SDS011;29856;52.144;5.430;2023-05-10T03:41:20;107.78;;;45.75;;
44189;SDS011;29856;52.144;5.430;2023-05-10T03:43:46;125.00;;;49.80;;
44189;SDS011;29856;52.144;5.430;2023-05-10T03:46:11;114.47;;;48.55;;
44189;SDS011;29856;52.144;5.430;2023-05-10T03:48:37;105.15;;;45.42;;
44189;SDS011;29856;52.144;5.430;2023-05-10T03:51:02;100.80;;;44.17;;
44189;SDS011;29856;52.144;5.430;2023-05-10T03:53:28;94.78;;;43.33;;
44189;SDS011;29856;52.144;5.430;2023-05-10T03:55:53;105.70;;;46.92;;
44189;SDS011;29856;52.144;5.430;2023-05-10T03:58:19;113.47;;;47.45;;
44189;SDS011;29856;52.144;5.430;2023-05-10T04:00:44;109.60;;;46.00;;
44189;SDS011;29856;52.144;5.430;2023-05-10T04:03:10;87.22;;;41.80;;
44189;SDS011;29856;52.144;5.430;2023-05-10T04:05:37;105.82;;;44.65;;
44189;SDS011;29856;52.144;5.430;2023-05-10T04:08:03;113.38;;;48.17;;
44189;SDS011;29856;52.144;5.430;2023-05-10T04:10:28;110.35;;;47.67;;
44189;SDS011;29856;52.144;5.430;2023-05-10T04:12:54;104.82;;;45.35;;
44189;SDS011;29856;52.144;5.430;2023-05-10T04:15:19;98.13;;;45.78;;
44189;SDS011;29856;52.144;5.430;2023-05-10T04:17:45;88.43;;;41.65;;
44189;SDS011;29856;52.144;5.430;2023-05-10T04:20:11;95.40;;;42.05;;
44189;SDS011;29856;52.144;5.430;2023-05-10T04:22:37;97.82;;;43.85;;
44189;SDS011;29856;52.144;5.430;2023-05-10T04:25:02;109.30;;;47.85;;
44189;SDS011;29856;52.144;5.430;2023-05-10T04:27:28;102.40;;;45.08;;
44189;SDS011;29856;52.144;5.430;2023-05-10T04:29:53;104.30;;;45.63;;
44189;SDS011;29856;52.144;5.430;2023-05-10T04:32:19;82.13;;;40.30;;
44189;SDS011;29856;52.144;5.430;2023-05-10T04:34:44;104.60;;;45.28;;
44189;SDS011;29856;52.144;5.430;2023-05-10T04:37:10;92.40;;;42.25;;
44189;SDS011;29856;52.144;5.430;2023-05-10T04:39:35;103.15;;;45.63;;
44189;SDS011;29856;52.144;5.430;2023-05-10T04:42:01;117.50;;;47.58;;
44189;SDS011;29856;52.144;5.430;2023-05-10T04:44:27;123.88;;;50.08;;
44189;SDS011;29856;52.144;5.430;2023-05-10T04:46:53;101.78;;;44.60;;
44189;SDS011;29856;52.144;5.430;2023-05-10T04:49:19;96.10;;;41.05;;
44189;SDS011;29856;52.144;5.430;2023-05-10T04:51:44;94.57;;;40.58;;
44189;SDS011;29856;52.144;5.430;2023-05-10T04:54:10;107.75;;;45.03;;
44189;SDS011;29856;52.144;5.430;2023-05-10T04:56:35;118.03;;;48.80;;
44189;SDS011;29856;52.144;5.430;2023-05-10T04:59:00;91.65;;;43.70;;
44189;SDS011;29856;52.144;5.430;2023-05-10T05:01:26;92.22;;;42.67;;
44189;SDS011;29856;52.144;5.430;2023-05-10T05:03:51;107.10;;;46.88;;
44189;SDS011;29856;52.144;5.430;2023-05-10T05:06:17;113.00;;;48.92;;
44189;SDS011;29856;52.144;5.430;2023-05-10T05:08:42;118.28;;;51.30;;
44189;SDS011;29856;52.144;5.430;2023-05-10T05:11:08;114.57;;;49.22;;
44189;SDS011;29856;52.144;5.430;2023-05-10T05:13:33;109.15;;;48.67;;
44189;SDS011;29856;52.144;5.430;2023-05-10T05:16:00;122.75;;;51.13;;
44189;SDS011;29856;52.144;5.430;2023-05-10T05:18:28;115.03;;;49.08;;
44189;SDS011;29856;52.144;5.430;2023-05-10T05:20:54;130.93;;;54.03;;
44189;SDS011;29856;52.144;5.430;2023-05-10T05:23:19;126.68;;;51.45;;
44189;SDS011;29856;52.144;5.430;2023-05-10T05:25:45;112.85;;;47.20;;
44189;SDS011;29856;52.144;5.430;2023-05-10T05:28:10;106.32;;;45.40;;
44189;SDS011;29856;52.144;5.430;2023-05-10T05:30:36;111.10;;;46.90;;
44189;SDS011;29856;52.144;5.430;2023-05-10T05:33:01;109.95;;;49.38;;
44189;SDS011;29856;52.144;5.430;2023-05-10T05:35:26;99.13;;;46.55;;
44189;SDS011;29856;52.144;5.430;2023-05-10T05:37:52;99.68;;;46.17;;
44189;SDS011;29856;52.144;5.430;2023-05-10T05:40:17;93.80;;;42.72;;
44189;SDS011;29856;52.144;5.430;2023-05-10T05:42:43;98.20;;;44.45;;
44189;SDS011;29856;52.144;5.430;2023-05-10T05:45:09;94.93;;;42.10;;
44189;SDS011;29856;52.144;5.430;2023-05-10T05:47:34;100.65;;;44.70;;
44189;SDS011;29856;52.144;5.430;2023-05-10T05:50:00;97.60;;;44.10;;
44189;SDS011;29856;52.144;5.430;2023-05-10T05:52:25;105.97;;;45.22;;
44189;SDS011;29856;52.144;5.430;2023-05-10T05:54:51;96.88;;;43.72;;
44189;SDS011;29856;52.144;5.430;2023-05-10T05:57:16;102.97;;;45.97;;
44189;SDS011;29856;52.144;5.430;2023-05-10T05:59:41;92.88;;;45.00;;
44189;SDS011;29856;52.144;5.430;2023-05-10T06:02:08;96.28;;;44.88;;
44189;SDS011;29856;52.144;5.430;2023-05-10T06:04:33;100.28;;;44.95;;
44189;SDS011;29856;52.144;5.430;2023-05-10T06:06:59;96.85;;;44.13;;
44189;SDS011;29856;52.144;5.430;2023-05-10T06:09:24;85.28;;;42.05;;
44189;SDS011;29856;52.144;5.430;2023-05-10T06:11:50;86.93;;;40.25;;
44189;SDS011;29856;52.144;5.430;2023-05-10T06:14:15;74.00;;;38.78;;
44189;SDS011;29856;52.144;5.430;2023-05-10T06:16:41;82.30;;;42.10;;
44189;SDS011;29856;52.144;5.430;2023-05-10T06:19:06;86.55;;;41.90;;
44189;SDS011;29856;52.144;5.430;2023-05-10T06:21:31;90.85;;;44.10;;
44189;SDS011;29856;52.144;5.430;2023-05-10T06:23:57;81.03;;;42.03;;
44189;SDS011;29856;52.144;5.430;2023-05-10T06:26:22;79.75;;;41.13;;
44189;SDS011;29856;52.144;5.430;2023-05-10T06:28:48;77.35;;;41.00;;
44189;SDS011;29856;52.144;5.430;2023-05-10T06:31:13;86.13;;;40.95;;
44189;SDS011;29856;52.144;5.430;2023-05-10T06:33:39;79.70;;;40.85;;
44189;SDS011;29856;52.144;5.430;2023-05-10T06:36:04;77.53;;;37.83;;
44189;SDS011;29856;52.144;5.430;2023-05-10T06:38:30;66.20;;;35.78;;
44189;SDS011;29856;52.144;5.430;2023-05-10T06:40:55;69.32;;;35.58;;
44189;SDS011;29856;52.144;5.430;2023-05-10T06:43:21;60.25;;;32.83;;
44189;SDS011;29856;52.144;5.430;2023-05-10T06:45:47;56.72;;;32.55;;
44189;SDS011;29856;52.144;5.430;2023-05-10T06:48:13;59.28;;;31.33;;
44189;SDS011;29856;52.144;5.430;2023-05-10T06:50:38;53.15;;;28.20;;
44189;SDS011;29856;52.144;5.430;2023-05-10T06:53:04;53.60;;;27.58;;
44189;SDS011;29856;52.144;5.430;2023-05-10T06:55:29;50.47;;;26.58;;
44189;SDS011;29856;52.144;5.430;2023-05-10T06:57:54;47.40;;;26.40;;
44189;SDS011;29856;52.144;5.430;2023-05-10T07:00:20;42.65;;;24.25;;
44189;SDS011;29856;52.144;5.430;2023-05-10T07:02:46;43.85;;;23.77;;
44189;SDS011;29856;52.144;5.430;2023-05-10T07:05:12;36.40;;;20.98;;
44189;SDS011;29856;52.144;5.430;2023-05-10T07:07:37;40.97;;;21.80;;
44189;SDS011;29856;52.144;5.430;2023-05-10T07:10:03;40.42;;;22.33;;
44189;SDS011;29856;52.144;5.430;2023-05-10T07:12:29;33.50;;;20.30;;
44189;SDS011;29856;52.144;5.430;2023-05-10T07:14:54;30.08;;;18.52;;
44189;SDS011;29856;52.144;5.430;2023-05-10T07:17:20;27.95;;;18.23;;
44189;SDS011;29856;52.144;5.430;2023-05-10T07:19:45;27.75;;;16.80;;
44189;SDS011;29856;52.144;5.430;2023-05-10T07:22:11;30.15;;;17.00;;
44189;SDS011;29856;52.144;5.430;2023-05-10T07:24:36;27.48;;;17.38;;
44189;SDS011;29856;52.144;5.430;2023-05-10T07:27:02;28.25;;;17.85;;
44189;SDS011;29856;52.144;5.430;2023-05-10T07:29:27;25.33;;;15.88;;
44189;SDS011;29856;52.144;5.430;2023-05-10T07:31:53;22.60;;;14.27;;
44189;SDS011;29856;52.144;5.430;2023-05-10T07:34:18;22.65;;;14.65;;
44189;SDS011;29856;52.144;5.430;2023-05-10T07:36:44;25.85;;;15.88;;
44189;SDS011;29856;52.144;5.430;2023-05-10T07:39:09;24.05;;;15.63;;
44189;SDS011;29856;52.144;5.430;2023-05-10T07:41:35;25.33;;;15.45;;
44189;SDS011;29856;52.144;5.430;2023-05-10T07:44:00;19.13;;;14.45;;
44189;SDS011;29856;52.144;5.430;2023-05-10T07:46:26;22.58;;;14.70;;
44189;SDS011;29856;52.144;5.430;2023-05-10T07:48:51;29.10;;;17.42;;
44189;SDS011;29856;52.144;5.430;2023-05-10T07:51:17;24.13;;;16.35;;
44189;SDS011;29856;52.144;5.430;2023-05-10T07:53:42;22.98;;;16.27;;
44189;SDS011;29856;52.144;5.430;2023-05-10T07:56:21;25.63;;;15.40;;
44189;SDS011;29856;52.144;5.430;2023-05-10T07:58:48;24.25;;;15.45;;
44189;SDS011;29856;52.144;5.430;2023-05-10T08:01:13;21.92;;;14.90;;
44189;SDS011;29856;52.144;5.430;2023-05-10T08:03:39;26.63;;;13.85;;
44189;SDS011;29856;52.144;5.430;2023-05-10T08:06:04;22.67;;;13.43;;
44189;SDS011;29856;52.144;5.430;2023-05-10T08:08:30;23.83;;;13.82;;
44189;SDS011;29856;52.144;5.430;2023-05-10T08:10:55;22.67;;;13.32;;
44189;SDS011;29856;52.144;5.430;2023-05-10T08:13:21;22.02;;;13.40;;
44189;SDS011;29856;52.144;5.430;2023-05-10T08:15:46;18.52;;;12.93;;
44189;SDS011;29856;52.144;5.430;2023-05-10T08:18:12;20.67;;;13.68;;
44189;SDS011;29856;52.144;5.430;2023-05-10T08:20:37;20.92;;;13.77;;
44189;SDS011;29856;52.144;5.430;2023-05-10T08:23:03;20.50;;;13.75;;
44189;SDS011;29856;52.144;5.430;2023-05-10T08:25:28;18.98;;;13.82;;
44189;SDS011;29856;52.144;5.430;2023-05-10T08:27:54;23.23;;;13.77;;
44189;SDS011;29856;52.144;5.430;2023-05-10T08:30:19;21.23;;;13.85;;
44189;SDS011;29856;52.144;5.430;2023-05-10T08:32:45;25.10;;;15.45;;
44189;SDS011;29856;52.144;5.430;2023-05-10T08:35:10;20.75;;;12.48;;
44189;SDS011;29856;52.144;5.430;2023-05-10T08:37:36;21.25;;;15.30;;
44189;SDS011;29856;52.144;5.430;2023-05-10T08:40:01;25.02;;;15.75;;
44189;SDS011;29856;52.144;5.430;2023-05-10T08:42:28;20.92;;;14.80;;
44189;SDS011;29856;52.144;5.430;2023-05-10T08:44:55;25.50;;;15.93;;
44189;SDS011;29856;52.144;5.430;2023-05-10T08:47:22;22.92;;;16.73;;
44189;SDS011;29856;52.144;5.430;2023-05-10T08:49:48;24.02;;;16.23;;
44189;SDS011;29856;52.144;5.430;2023-05-10T08:52:14;21.55;;;15.82;;
44189;SDS011;29856;52.144;5.430;2023-05-10T08:54:41;23.63;;;15.73;;
44189;SDS011;29856;52.144;5.430;2023-05-10T08:57:07;23.00;;;16.02;;
44189;SDS011;29856;52.144;5.430;2023-05-10T08:59:32;18.80;;;13.73;;
44189;SDS011;29856;52.144;5.430;2023-05-10T09:01:58;17.95;;;13.05;;
44189;SDS011;29856;52.144;5.430;2023-05-10T09:04:24;18.88;;;13.38;;
44189;SDS011;29856;52.144;5.430;2023-05-10T09:06:50;17.77;;;13.10;;
44189;SDS011;29856;52.144;5.430;2023-05-10T09:09:15;21.00;;;14.98;;
44189;SDS011;29856;52.144;5.430;2023-05-10T09:11:42;18.48;;;12.88;;
44189;SDS011;29856;52.144;5.430;2023-05-10T09:14:09;14.25;;;11.23;;
44189;SDS011;29856;52.144;5.430;2023-05-10T09:16:34;16.75;;;12.60;;
44189;SDS011;29856;52.144;5.430;2023-05-10T09:19:00;15.95;;;10.07;;
44189;SDS011;29856;52.144;5.430;2023-05-10T09:21:25;10.80;;;8.82;;
44189;SDS011;29856;52.144;5.430;2023-05-10T09:23:51;13.13;;;9.27;;
44189;SDS011;29856;52.144;5.430;2023-05-10T09:26:17;14.20;;;9.43;;
44189;SDS011;29856;52.144;5.430;2023-05-10T09:28:54;11.57;;;7.65;;
44189;SDS011;29856;52.144;5.430;2023-05-10T09:31:21;12.77;;;8.00;;
44189;SDS011;29856;52.144;5.430;2023-05-10T09:33:48;9.13;;;6.75;;
44189;SDS011;29856;52.144;5.430;2023-05-10T09:36:14;6.63;;;5.53;;
44189;SDS011;29856;52.144;5.430;2023-05-10T09:38:47;7.78;;;6.03;;
44189;SDS011;29856;52.144;5.430;2023-05-10T09:41:25;7.22;;;6.05;;
44189;SDS011;29856;52.144;5.430;2023-05-10T09:43:55;6.97;;;4.45;;
44189;SDS011;29856;52.144;5.430;2023-05-10T09:46:21;5.40;;;4.63;;
44189;SDS011;29856;52.144;5.430;2023-05-10T09:48:47;4.45;;;3.60;;
44189;SDS011;29856;52.144;5.430;2023-05-10T09:51:19;6.90;;;4.20;;
44189;SDS011;29856;52.144;5.430;2023-05-10T09:53:47;6.63;;;4.28;;
44189;SDS011;29856;52.144;5.430;2023-05-10T09:56:12;5.38;;;3.95;;
44189;SDS011;29856;52.144;5.430;2023-05-10T09:58:39;4.78;;;4.07;;
44189;SDS011;29856;52.144;5.430;2023-05-10T10:01:05;5.07;;;3.95;;
44189;SDS011;29856;52.144;5.430;2023-05-10T10:03:40;7.43;;;4.50;;
44189;SDS011;29856;52.144;5.430;2023-05-10T10:06:07;8.95;;;5.72;;
44189;SDS011;29856;52.144;5.430;2023-05-10T10:08:33;7.40;;;6.07;;
44189;SDS011;29856;52.144;5.430;2023-05-10T10:10:59;10.82;;;6.50;;
44189;SDS011;29856;52.144;5.430;2023-05-10T10:13:24;9.88;;;6.72;;
44189;SDS011;29856;52.144;5.430;2023-05-10T10:15:50;11.15;;;7.53;;
44189;SDS011;29856;52.144;5.430;2023-05-10T10:18:17;13.48;;;7.35;;
44189;SDS011;29856;52.144;5.430;2023-05-10T10:20:43;11.05;;;6.80;;
44189;SDS011;29856;52.144;5.430;2023-05-10T10:23:09;12.07;;;7.22;;
44189;SDS011;29856;52.144;5.430;2023-05-10T10:25:34;7.15;;;6.50;;
44189;SDS011;29856;52.144;5.430;2023-05-10T10:30:49;8.88;;;7.03;;
44189;SDS011;29856;52.144;5.430;2023-05-10T10:36:16;13.20;;;7.60;;
44189;SDS011;29856;52.144;5.430;2023-05-10T10:49:32;10.27;;;8.00;;
44189;SDS011;29856;52.144;5.430;2023-05-10T10:52:21;10.95;;;7.95;;
44189;SDS011;29856;52.144;5.430;2023-05-10T10:54:50;10.57;;;7.35;;
44189;SDS011;29856;52.144;5.430;2023-05-10T10:57:24;9.10;;;7.13;;
44189;SDS011;29856;52.144;5.430;2023-05-10T10:59:49;11.10;;;7.63;;
44189;SDS011;29856;52.144;5.430;2023-05-10T11:02:58;8.65;;;6.50;;
44189;SDS011;29856;52.144;5.430;2023-05-10T11:05:26;11.18;;;7.72;;
44189;SDS011;29856;52.144;5.430;2023-05-10T11:07:58;11.00;;;7.20;;
44189;SDS011;29856;52.144;5.430;2023-05-10T11:10:25;9.88;;;7.20;;
44189;SDS011;29856;52.144;5.430;2023-05-10T11:13:01;7.93;;;6.80;;
44189;SDS011;29856;52.144;5.430;2023-05-10T11:15:31;10.73;;;7.43;;
44189;SDS011;29856;52.144;5.430;2023-05-10T11:17:58;9.13;;;6.50;;
44189;SDS011;29856;52.144;5.430;2023-05-10T11:20:23;10.30;;;6.45;;
44189;SDS011;29856;52.144;5.430;2023-05-10T11:22:53;8.10;;;6.40;;
44189;SDS011;29856;52.144;5.430;2023-05-10T11:25:19;9.32;;;6.93;;
44189;SDS011;29856;52.144;5.430;2023-05-10T11:30:56;10.00;;;7.13;;
44189;SDS011;29856;52.144;5.430;2023-05-10T11:33:22;10.80;;;7.22;;
44189;SDS011;29856;52.144;5.430;2023-05-10T11:35:49;8.13;;;6.90;;
44189;SDS011;29856;52.144;5.430;2023-05-10T11:38:14;10.27;;;7.00;;
44189;SDS011;29856;52.144;5.430;2023-05-10T11:40:43;8.60;;;6.63;;
44189;SDS011;29856;52.144;5.430;2023-05-10T11:43:08;8.77;;;6.38;;
44189;SDS011;29856;52.144;5.430;2023-05-10T11:45:34;12.70;;;7.18;;
44189;SDS011;29856;52.144;5.430;2023-05-10T11:48:00;8.02;;;6.80;;
44189;SDS011;29856;52.144;5.430;2023-05-10T11:50:26;9.55;;;6.07;;
44189;SDS011;29856;52.144;5.430;2023-05-10T11:52:53;6.43;;;5.20;;
44189;SDS011;29856;52.144;5.430;2023-05-10T11:55:21;8.63;;;5.60;;
44189;SDS011;29856;52.144;5.430;2023-05-10T11:57:47;8.60;;;5.90;;
44189;SDS011;29856;52.144;5.430;2023-05-10T12:00:17;8.02;;;4.93;;
44189;SDS011;29856;52.144;5.430;2023-05-10T12:02:43;5.85;;;4.55;;
44189;SDS011;29856;52.144;5.430;2023-05-10T12:05:09;7.45;;;4.50;;
44189;SDS011;29856;52.144;5.430;2023-05-10T12:07:35;5.95;;;4.03;;
44189;SDS011;29856;52.144;5.430;2023-05-10T12:10:08;9.30;;;4.32;;
44189;SDS011;29856;52.144;5.430;2023-05-10T12:12:42;6.67;;;3.90;;
44189;SDS011;29856;52.144;5.430;2023-05-10T12:15:17;6.28;;;4.53;;
44189;SDS011;29856;52.144;5.430;2023-05-10T12:17:47;4.47;;;4.03;;
44189;SDS011;29856;52.144;5.430;2023-05-10T12:20:15;4.35;;;3.50;;
44189;SDS011;29856;52.144;5.430;2023-05-10T12:22:45;5.65;;;3.10;;
44189;SDS011;29856;52.144;5.430;2023-05-10T12:25:11;6.28;;;3.10;;
44189;SDS011;29856;52.144;5.430;2023-05-10T12:30:45;5.45;;;3.33;;
44189;SDS011;29856;52.144;5.430;2023-05-10T12:33:12;7.78;;;4.00;;
44189;SDS011;29856;52.144;5.430;2023-05-10T12:35:45;7.35;;;4.20;;
44189;SDS011;29856;52.144;5.430;2023-05-10T12:40:51;6.53;;;4.10;;
44189;SDS011;29856;52.144;5.430;2023-05-10T12:43:17;6.32;;;4.55;;
44189;SDS011;29856;52.144;5.430;2023-05-10T12:45:42;5.65;;;3.90;;
44189;SDS011;29856;52.144;5.430;2023-05-10T12:48:08;5.30;;;3.40;;
44189;SDS011;29856;52.144;5.430;2023-05-10T12:50:33;7.65;;;3.83;;
44189;SDS011;29856;52.144;5.430;2023-05-10T12:52:59;7.75;;;3.65;;
44189;SDS011;29856;52.144;5.430;2023-05-10T12:55:24;6.10;;;3.40;;
44189;SDS011;29856;52.144;5.430;2023-05-10T12:57:50;3.97;;;3.50;;
44189;SDS011;29856;52.144;5.430;2023-05-10T13:00:15;3.75;;;3.22;;
44189;SDS011;29856;52.144;5.430;2023-05-10T13:02:41;4.68;;;3.05;;
44189;SDS011;29856;52.144;5.430;2023-05-10T13:05:06;3.17;;;2.30;;
44189;SDS011;29856;52.144;5.430;2023-05-10T13:07:32;5.88;;;3.03;;
44189;SDS011;29856;52.144;5.430;2023-05-10T13:09:57;4.43;;;3.00;;
44189;SDS011;29856;52.144;5.430;2023-05-10T13:12:23;5.07;;;2.88;;
44189;SDS011;29856;52.144;5.430;2023-05-10T13:15:09;3.67;;;2.67;;
44189;SDS011;29856;52.144;5.430;2023-05-10T13:17:40;5.70;;;3.17;;
44189;SDS011;29856;52.144;5.430;2023-05-10T13:20:05;4.07;;;2.58;;
44189;SDS011;29856;52.144;5.430;2023-05-10T13:22:31;4.32;;;2.95;;
44189;SDS011;29856;52.144;5.430;2023-05-10T13:24:57;5.65;;;3.10;;
44189;SDS011;29856;52.144;5.430;2023-05-10T13:27:22;8.23;;;5.10;;
44189;SDS011;29856;52.144;5.430;2023-05-10T13:29:50;7.32;;;5.53;;
44189;SDS011;29856;52.144;5.430;2023-05-10T13:35:14;12.27;;;7.90;;
44189;SDS011;29856;52.144;5.430;2023-05-10T13:37:39;14.68;;;8.40;;
44189;SDS011;29856;52.144;5.430;2023-05-10T13:40:05;12.05;;;7.15;;
44189;SDS011;29856;52.144;5.430;2023-05-10T13:42:31;11.65;;;7.10;;
44189;SDS011;29856;52.144;5.430;2023-05-10T13:44:56;11.95;;;7.47;;
44189;SDS011;29856;52.144;5.430;2023-05-10T13:47:22;9.32;;;6.80;;
44189;SDS011;29856;52.144;5.430;2023-05-10T13:49:56;13.40;;;8.40;;
44189;SDS011;29856;52.144;5.430;2023-05-10T13:52:55;10.70;;;7.78;;
44189;SDS011;29856;52.144;5.430;2023-05-10T13:55:21;16.52;;;9.65;;
44189;SDS011;29856;52.144;5.430;2023-05-10T13:57:47;14.02;;;9.05;;
44189;SDS011;29856;52.144;5.430;2023-05-10T14:00:12;16.17;;;9.63;;
44189;SDS011;29856;52.144;5.430;2023-05-10T14:02:38;13.82;;;9.07;;
44189;SDS011;29856;52.144;5.430;2023-05-10T14:05:04;15.35;;;9.32;;
44189;SDS011;29856;52.144;5.430;2023-05-10T14:07:29;13.50;;;8.23;;
44189;SDS011;29856;52.144;5.430;2023-05-10T14:09:55;10.85;;;7.57;;
44189;SDS011;29856;52.144;5.430;2023-05-10T14:12:20;10.65;;;7.40;;
44189;SDS011;29856;52.144;5.430;2023-05-10T14:14:46;11.95;;;8.05;;
44189;SDS011;29856;52.144;5.430;2023-05-10T14:17:11;9.88;;;7.45;;
44189;SDS011;29856;52.144;5.430;2023-05-10T14:19:37;12.48;;;8.10;;
44189;SDS011;29856;52.144;5.430;2023-05-10T14:22:02;12.88;;;8.90;;
44189;SDS011;29856;52.144;5.430;2023-05-10T14:24:27;13.63;;;8.80;;
44189;SDS011;29856;52.144;5.430;2023-05-10T14:26:53;12.35;;;8.25;;
44189;SDS011;29856;52.144;5.430;2023-05-10T14:29:19;13.90;;;8.57;;
44189;SDS011;29856;52.144;5.430;2023-05-10T14:31:45;15.23;;;9.70;;
44189;SDS011;29856;52.144;5.430;2023-05-10T14:34:11;18.52;;;8.90;;
44189;SDS011;29856;52.144;5.430;2023-05-10T14:36:36;12.60;;;8.43;;
44189;SDS011;29856;52.144;5.430;2023-05-10T14:39:02;14.30;;;9.07;;
44189;SDS011;29856;52.144;5.430;2023-05-10T14:41:27;13.55;;;8.85;;
44189;SDS011;29856;52.144;5.430;2023-05-10T14:43:53;14.02;;;8.70;;
44189;SDS011;29856;52.144;5.430;2023-05-10T14:46:18;15.35;;;9.50;;
44189;SDS011;29856;52.144;5.430;2023-05-10T14:48:44;15.15;;;8.45;;
44189;SDS011;29856;52.144;5.430;2023-05-10T14:51:09;14.57;;;9.10;;
44189;SDS011;29856;52.144;5.430;2023-05-10T14:53:35;13.25;;;8.52;;
44189;SDS011;29856;52.144;5.430;2023-05-10T14:56:00;13.05;;;8.95;;
44189;SDS011;29856;52.144;5.430;2023-05-10T14:58:26;13.32;;;8.90;;
44189;SDS011;29856;52.144;5.430;2023-05-10T15:00:51;14.35;;;9.50;;
44189;SDS011;29856;52.144;5.430;2023-05-10T15:03:17;13.07;;;8.75;;
44189;SDS011;29856;52.144;5.430;2023-05-10T15:05:42;12.20;;;8.23;;
44189;SDS011;29856;52.144;5.430;2023-05-10T15:08:08;12.85;;;8.65;;
44189;SDS011;29856;52.144;5.430;2023-05-10T15:10:33;15.07;;;8.73;;
44189;SDS011;29856;52.144;5.430;2023-05-10T15:12:59;14.63;;;9.32;;
44189;SDS011;29856;52.144;5.430;2023-05-10T15:15:25;13.23;;;8.82;;
44189;SDS011;29856;52.144;5.430;2023-05-10T15:17:50;13.32;;;9.27;;